Time;durP1;ratioP1;P1;durP2;ratioP2;P2;SDS_P1;SDS_P2;PMS_P1;PMS_P2;Temp;Humidity;BMP_temperature;BMP_pressure;BME280_temperature;BME280_humidity;BME280_pressure;Samples;Min_cycle;Max_cycle;Signal;HPM_P1;HPM_P2
2022/03/06 00:01:25;;;;;;;9.13;6.47;;;3.90;52.50;3.70;96489.00;;;;5054534;28;20443;-84
2022/03/06 00:03:52;;;;;;;9.17;6.70;;;3.90;52.70;3.70;96490.00;;;;5054363;28;21054;-84
2022/03/06 00:06:19;;;;;;;9.83;7.00;;;3.90;52.90;3.70;96483.00;;;;5053973;28;20435;-84
2022/03/06 00:08:48;;;;;;;10.73;7.30;;;3.90;52.90;3.70;96478.00;;;;5054004;28;20995;-84
2022/03/06 00:11:15;;;;;;;10.53;6.83;;;3.90;52.90;3.80;96479.00;;;;5053750;28;20438;-84
2022/03/06 00:13:42;;;;;;;9.60;6.87;;;4.00;52.90;3.80;96472.00;;;;5053704;28;20467;-84
2022/03/06 00:16:09;;;;;;;10.30;7.53;;;3.90;52.90;3.80;96488.00;;;;5053567;28;20457;-84
2022/03/06 00:18:37;;;;;;;9.33;7.00;;;4.00;52.90;3.80;96478.00;;;;5054120;28;20988;-84
2022/03/06 00:21:04;;;;;;;11.07;7.53;;;4.00;52.90;3.80;96489.00;;;;5053782;28;20807;-84
2022/03/06 00:23:31;;;;;;;10.43;7.20;;;4.00;53.00;3.80;96483.00;;;;5053388;28;20462;-84
2022/03/06 00:26:00;;;;;;;11.40;7.33;;;3.90;53.20;3.70;96489.00;;;;5053076;28;20440;-84
2022/03/06 00:28:27;;;;;;;10.03;7.40;;;4.00;52.90;3.80;96496.00;;;;5053025;28;20450;-84
2022/03/06 00:30:54;;;;;;;9.13;6.90;;;3.90;53.00;3.80;96490.00;;;;5052673;28;20427;-84
2022/03/06 00:33:21;;;;;;;11.23;7.37;;;3.90;53.10;3.70;96489.00;;;;5053005;28;20443;-85
2022/03/06 00:35:48;;;;;;;10.87;7.03;;;3.90;53.30;3.80;96496.00;;;;5052981;28;20493;-85
2022/03/06 00:38:15;;;;;;;9.57;6.90;;;3.90;53.30;3.70;96498.00;;;;5053058;28;20991;-84
2022/03/06 00:40:45;;;;;;;11.50;7.47;;;3.90;53.20;3.70;96490.00;;;;5053067;28;20447;-85
2022/03/06 00:43:15;;;;;;;10.30;7.27;;;3.90;53.30;3.80;96483.00;;;;5052236;28;20470;-84
2022/03/06 00:45:42;;;;;;;9.83;7.27;;;4.00;53.50;3.70;96497.00;;;;5052614;28;20439;-84
2022/03/06 00:48:09;;;;;;;10.93;7.53;;;3.90;53.30;3.80;96500.00;;;;5052542;28;20431;-84
2022/03/06 00:50:37;;;;;;;10.93;7.70;;;4.00;53.40;3.80;96492.00;;;;5052722;28;21096;-85
2022/03/06 00:53:05;;;;;;;12.73;7.83;;;4.00;53.30;3.80;96492.00;;;;5052848;28;20817;-84
2022/03/06 00:55:33;;;;;;;10.40;7.30;;;3.90;53.30;3.70;96495.00;;;;5052248;28;20459;-84
2022/03/06 00:58:05;;;;;;;11.40;7.80;;;3.90;53.50;3.70;96495.00;;;;5052659;28;20431;-84
2022/03/06 01:00:35;;;;;;;12.80;8.00;;;3.90;53.50;3.70;96495.00;;;;5052203;28;20435;-84
2022/03/06 01:03:04;;;;;;;10.87;7.40;;;3.90;53.50;3.70;96490.00;;;;5052482;28;20466;-85
2022/03/06 01:05:31;;;;;;;10.80;7.30;;;3.90;53.60;3.70;96491.00;;;;5039047;28;20432;-84
2022/03/06 01:07:59;;;;;;;9.93;7.37;;;3.90;53.70;3.70;96492.00;;;;5031651;28;20957;-84
2022/03/06 01:10:27;;;;;;;10.20;7.13;;;3.90;53.70;3.70;96478.00;;;;5032505;28;20805;-85
2022/03/06 01:12:54;;;;;;;10.77;7.10;;;3.90;53.80;3.70;96499.00;;;;5040170;28;20451;-84
2022/03/06 01:15:22;;;;;;;10.00;6.70;;;3.90;53.80;3.70;96497.00;;;;5051909;28;20439;-84
2022/03/06 01:17:51;;;;;;;10.90;7.47;;;3.90;53.70;3.70;96496.00;;;;5051962;28;20442;-85
2022/03/06 01:20:19;;;;;;;10.97;7.80;;;4.00;53.90;3.70;96489.00;;;;5052373;28;20483;-85
2022/03/06 01:22:47;;;;;;;10.23;6.97;;;3.90;53.70;3.70;96498.00;;;;5051740;28;20470;-84
2022/03/06 01:25:14;;;;;;;10.23;7.27;;;3.90;53.70;3.70;96493.00;;;;5052077;28;20446;-85
2022/03/06 01:27:42;;;;;;;10.90;8.03;;;3.90;53.80;3.70;96493.00;;;;5051907;28;20435;-84
2022/03/06 01:30:12;;;;;;;11.10;7.80;;;3.90;53.90;3.70;96496.00;;;;5052347;28;20466;-84
2022/03/06 01:32:40;;;;;;;11.80;7.63;;;3.90;53.90;3.70;96487.00;;;;5048633;28;20481;-84
2022/03/06 01:35:10;;;;;;;11.33;8.10;;;3.90;53.90;3.70;96487.00;;;;5051370;28;20440;-86
2022/03/06 01:37:37;;;;;;;11.73;7.73;;;3.90;53.90;3.70;96483.00;;;;5052420;28;20917;-85
2022/03/06 01:40:06;;;;;;;10.33;7.63;;;3.90;53.90;3.70;96488.00;;;;5051957;28;20475;-85
2022/03/06 01:42:33;;;;;;;10.40;7.70;;;3.90;54.00;3.60;96495.00;;;;5051491;28;20491;-85
2022/03/06 01:45:01;;;;;;;12.17;7.63;;;3.90;54.00;3.60;96483.00;;;;5051914;28;20449;-86
2022/03/06 01:47:36;;;;;;;10.30;7.10;;;3.80;54.10;3.60;96486.00;;;;5052128;28;20804;-85
2022/03/06 01:50:05;;;;;;;11.00;7.50;;;3.80;54.10;3.60;96485.00;;;;5052549;28;20443;-86
2022/03/06 01:52:34;;;;;;;11.33;7.73;;;3.80;54.00;3.60;96487.00;;;;5052429;28;20443;-85
2022/03/06 01:55:01;;;;;;;10.63;8.10;;;3.80;53.90;3.60;96478.00;;;;5055209;28;20458;-86
2022/03/06 01:57:30;;;;;;;8.73;7.10;;;3.80;54.20;3.60;96477.00;;;;5056448;28;20920;-85
2022/03/06 01:59:57;;;;;;;10.73;7.87;;;3.80;54.20;3.60;96485.00;;;;5055852;28;20912;-85
2022/03/06 02:02:26;;;;;;;10.67;7.63;;;3.80;54.20;3.60;96472.00;;;;5056260;28;20600;-85
2022/03/06 02:04:53;;;;;;;10.43;7.70;;;3.70;54.20;3.60;96480.00;;;;5060051;28;20435;-85
2022/03/06 02:07:20;;;;;;;10.00;7.60;;;3.80;54.30;3.60;96468.00;;;;5061882;28;20890;-85
2022/03/06 02:09:48;;;;;;;11.37;7.97;;;3.80;54.30;3.60;96471.00;;;;5055713;28;20203;-85
2022/03/06 02:12:24;;;;;;;11.00;7.90;;;3.80;54.40;3.60;96475.00;;;;5054468;28;20535;-85
2022/03/06 02:14:54;;;;;;;10.43;7.70;;;3.80;55.00;3.60;96484.00;;;;5051412;28;20450;-85
2022/03/06 02:17:23;;;;;;;10.73;7.33;;;3.80;54.40;3.50;96469.00;;;;5055122;28;20427;-85
2022/03/06 02:19:56;;;;;;;10.93;7.60;;;3.80;54.40;3.50;96472.00;;;;5054252;28;20530;-85
2022/03/06 02:22:28;;;;;;;12.80;8.43;;;3.80;54.50;3.50;96474.00;;;;5055957;28;20461;-85
2022/03/06 02:24:57;;;;;;;9.70;7.80;;;3.80;54.40;3.50;96475.00;;;;5040118;28;20796;-85
2022/03/06 02:27:25;;;;;;;12.17;7.90;;;3.70;54.50;3.50;96466.00;;;;5061202;28;20482;-85
2022/03/06 02:29:54;;;;;;;12.60;8.10;;;3.80;54.70;3.50;96476.00;;;;5057997;28;20441;-85
2022/03/06 02:32:24;;;;;;;9.17;6.87;;;3.80;54.60;3.50;96473.00;;;;5055156;28;20460;-85
2022/03/06 02:34:53;;;;;;;12.80;8.53;;;3.80;54.70;3.50;96476.00;;;;5052027;28;20455;-85
2022/03/06 02:37:22;;;;;;;10.90;7.80;;;3.70;54.40;3.50;96474.00;;;;5053319;28;20455;-86
2022/03/06 02:39:51;;;;;;;12.20;8.50;;;3.70;55.10;3.50;96478.00;;;;5054620;28;20487;-85
2022/03/06 02:42:26;;;;;;;11.27;8.13;;;3.70;54.50;3.50;96480.00;;;;5035619;28;20456;-85
2022/03/06 02:44:54;;;;;;;9.27;7.20;;;3.70;54.70;3.50;96479.00;;;;5048712;28;20454;-85
2022/03/06 02:47:21;;;;;;;11.07;8.33;;;3.70;54.60;3.40;96486.00;;;;5064173;28;20446;-85
2022/03/06 02:49:48;;;;;;;10.03;7.90;;;3.70;54.80;3.50;96483.00;;;;5058035;28;20465;-85
2022/03/06 02:52:16;;;;;;;10.47;7.40;;;3.70;54.90;3.50;96476.00;;;;5056719;28;20533;-86
2022/03/06 02:54:43;;;;;;;10.63;7.67;;;3.70;54.80;3.40;96477.00;;;;5066914;28;20455;-85
2022/03/06 02:57:12;;;;;;;11.93;7.90;;;3.70;54.90;3.50;96476.00;;;;5049283;28;20447;-85
2022/03/06 02:59:40;;;;;;;10.63;7.60;;;3.70;54.90;3.40;96484.00;;;;5044491;28;21038;-85
2022/03/06 03:02:08;;;;;;;12.77;8.27;;;3.70;55.00;3.50;96483.00;;;;5055065;28;20962;-85
2022/03/06 03:04:38;;;;;;;10.37;7.70;;;3.70;54.90;3.40;96484.00;;;;5054386;28;20956;-85
2022/03/06 03:07:06;;;;;;;11.67;8.10;;;3.70;55.00;3.40;96491.00;;;;5053860;28;20439;-85
2022/03/06 03:09:34;;;;;;;12.10;8.00;;;3.80;55.20;3.40;96494.00;;;;5051556;28;21007;-86
2022/03/06 03:12:02;;;;;;;11.67;8.00;;;3.70;55.20;3.40;96502.00;;;;5047713;28;20447;-85
2022/03/06 03:14:32;;;;;;;12.20;7.87;;;3.70;55.00;3.40;96489.00;;;;5045582;28;20451;-85
2022/03/06 03:16:59;;;;;;;13.60;8.03;;;3.70;55.10;3.40;96496.00;;;;5049668;28;20490;-85
2022/03/06 03:19:27;;;;;;;11.70;8.50;;;3.70;55.20;3.40;96495.00;;;;5043378;28;20486;-85
2022/03/06 03:21:55;;;;;;;13.17;8.37;;;3.70;55.10;3.40;96496.00;;;;5035147;28;20523;-86
2022/03/06 03:24:23;;;;;;;12.43;8.47;;;3.70;55.10;3.40;96503.00;;;;5047603;28;20993;-85
2022/03/06 03:26:50;;;;;;;12.60;8.37;;;3.60;55.10;3.40;96493.00;;;;5034375;28;20432;-85
2022/03/06 03:29:17;;;;;;;12.90;8.47;;;3.70;55.30;3.40;96496.00;;;;5033723;28;20987;-85
2022/03/06 03:31:46;;;;;;;12.10;8.00;;;3.70;55.20;3.40;96504.00;;;;5057351;23;20491;-79
2022/03/06 03:34:14;;;;;;;11.03;8.17;;;3.70;55.20;3.40;96492.00;;;;5042006;28;20496;-79
2022/03/06 03:36:42;;;;;;;13.33;9.07;;;3.70;55.20;3.40;96501.00;;;;5054382;28;20467;-79
2022/03/06 03:39:09;;;;;;;11.27;8.30;;;3.60;55.20;3.40;96502.00;;;;5053213;28;20643;-79
2022/03/06 03:41:36;;;;;;;12.07;8.53;;;3.70;55.20;3.40;96509.00;;;;5048609;28;21006;-79
2022/03/06 03:44:04;;;;;;;12.57;8.73;;;3.70;55.30;3.40;96496.00;;;;5043313;28;20984;-79
2022/03/06 03:46:31;;;;;;;13.03;8.60;;;3.60;55.30;3.40;96514.00;;;;5042123;28;21138;-79
2022/03/06 03:49:00;;;;;;;14.17;8.83;;;3.60;55.40;3.40;96513.00;;;;5039578;28;20439;-79
2022/03/06 03:51:27;;;;;;;11.10;8.37;;;3.60;55.30;3.30;96521.00;;;;5053906;28;20439;-79
2022/03/06 03:53:54;;;;;;;15.03;9.50;;;3.60;55.20;3.30;96514.00;;;;5054112;28;20467;-80
2022/03/06 03:56:22;;;;;;;14.33;9.17;;;3.50;55.40;3.30;96521.00;;;;5054562;28;20446;-80
2022/03/06 03:58:49;;;;;;;16.00;9.00;;;3.60;55.40;3.30;96520.00;;;;5050479;28;21019;-79
2022/03/06 04:01:18;;;;;;;12.57;8.60;;;3.60;55.40;3.30;96526.00;;;;5045430;28;20519;-79
2022/03/06 04:03:46;;;;;;;13.60;9.30;;;3.60;55.50;3.30;96526.00;;;;5054648;28;20477;-79
2022/03/06 04:06:15;;;;;;;14.07;8.53;;;3.70;55.50;3.30;96526.00;;;;5053377;28;20499;-79
2022/03/06 04:08:42;;;;;;;12.77;8.30;;;3.60;55.50;3.30;96539.00;;;;5046621;28;20440;-79
2022/03/06 04:11:09;;;;;;;11.93;8.20;;;3.60;55.60;3.30;96525.00;;;;5034668;28;20440;-79
2022/03/06 04:13:37;;;;;;;12.10;8.97;;;3.60;55.60;3.30;96531.00;;;;5039077;28;20467;-79
2022/03/06 04:16:05;;;;;;;12.97;8.63;;;3.60;55.80;3.30;96528.00;;;;5054406;28;20439;-80
2022/03/06 04:18:32;;;;;;;11.20;8.20;;;3.60;55.70;3.30;96525.00;;;;5038461;28;20447;-79
2022/03/06 04:20:59;;;;;;;13.03;8.77;;;3.60;55.80;3.30;96526.00;;;;5052756;28;20503;-79
2022/03/06 04:23:28;;;;;;;13.03;9.03;;;3.60;55.70;3.30;96532.00;;;;5053402;28;20486;-79
2022/03/06 04:25:55;;;;;;;13.33;8.70;;;3.50;55.70;3.30;96526.00;;;;5048860;28;20542;-79
2022/03/06 04:28:22;;;;;;;11.67;8.57;;;3.70;55.80;3.30;96528.00;;;;5035563;28;21014;-79
2022/03/06 04:30:54;;;;;;;11.13;8.30;;;3.50;55.70;3.30;96534.00;;;;5042234;28;20546;-79
2022/03/06 04:33:21;;;;;;;12.67;8.87;;;3.50;55.60;3.30;96530.00;;;;5034722;28;20833;-79
2022/03/06 04:35:48;;;;;;;11.80;8.40;;;3.50;55.70;3.20;96537.00;;;;5032738;28;20435;-79
2022/03/06 04:38:16;;;;;;;13.53;8.07;;;3.50;55.80;3.20;96538.00;;;;5035642;28;20475;-79
2022/03/06 04:40:48;;;;;;;13.23;9.03;;;3.50;55.70;3.20;96541.00;;;;5054719;28;20529;-80
2022/03/06 04:43:15;;;;;;;14.03;9.43;;;3.50;55.70;3.20;96547.00;;;;5053803;28;20455;-79
2022/03/06 04:45:45;;;;;;;13.13;8.70;;;3.50;55.50;3.20;96548.00;;;;5053581;28;20932;-79
2022/03/06 04:48:12;;;;;;;12.33;8.33;;;3.50;55.60;3.20;96537.00;;;;5055812;28;20787;-80
2022/03/06 04:50:39;;;;;;;12.37;8.70;;;3.40;55.60;3.10;96535.00;;;;5040745;28;20511;-79
2022/03/06 04:53:06;;;;;;;12.10;8.67;;;3.50;55.80;3.10;96539.00;;;;5052109;28;20467;-79
2022/03/06 04:55:34;;;;;;;12.40;8.47;;;3.40;55.80;3.10;96543.00;;;;5054936;28;20446;-79
2022/03/06 04:58:02;;;;;;;12.10;8.53;;;3.40;56.00;3.20;96543.00;;;;5054760;28;20974;-79
2022/03/06 05:00:34;;;;;;;12.27;8.73;;;3.40;56.00;3.20;96541.00;;;;5036402;28;20483;-79
2022/03/06 05:03:01;;;;;;;12.13;8.67;;;3.40;56.70;3.20;96542.00;;;;5043014;28;20930;-79
2022/03/06 05:05:28;;;;;;;13.90;9.33;;;3.40;56.00;3.20;96543.00;;;;5051426;28;20457;-79
2022/03/06 05:07:55;;;;;;;14.23;8.47;;;3.50;56.10;3.20;96538.00;;;;5054954;28;20848;-79
2022/03/06 05:10:23;;;;;;;12.33;8.80;;;3.40;56.10;3.20;96540.00;;;;5036444;28;20444;-79
2022/03/06 05:12:50;;;;;;;15.63;9.30;;;3.40;56.00;3.10;96536.00;;;;5034781;28;20433;-79
2022/03/06 05:15:19;;;;;;;12.33;8.23;;;3.40;55.90;3.10;96538.00;;;;5034818;28;20436;-79
2022/03/06 05:17:46;;;;;;;12.27;8.17;;;3.40;56.00;3.10;96534.00;;;;5042640;28;20440;-79
2022/03/06 05:20:14;;;;;;;11.57;7.97;;;3.40;56.00;3.10;96539.00;;;;5054465;28;20474;-79
2022/03/06 05:22:41;;;;;;;12.80;8.37;;;3.40;56.10;3.10;96536.00;;;;5053779;28;20441;-79
2022/03/06 05:25:10;;;;;;;11.07;7.90;;;3.30;56.10;3.10;96547.00;;;;5035721;28;20455;-79
2022/03/06 05:27:38;;;;;;;11.93;8.20;;;3.30;55.90;3.00;96549.00;;;;5035407;28;20896;-79
2022/03/06 05:30:09;;;;;;;11.70;8.33;;;3.40;56.10;3.00;96549.00;;;;5050153;28;20527;-79
2022/03/06 05:32:39;;;;;;;12.93;8.30;;;3.30;56.10;3.00;96547.00;;;;5038789;28;20459;-79
2022/03/06 05:35:10;;;;;;;12.47;8.33;;;3.30;56.00;3.00;96548.00;;;;5038698;28;20505;-79
2022/03/06 05:37:40;;;;;;;12.30;8.73;;;3.30;56.10;3.00;96551.00;;;;5046390;28;20459;-79
2022/03/06 05:40:09;;;;;;;12.40;8.57;;;3.30;56.10;3.00;96546.00;;;;5052058;28;20472;-79
2022/03/06 05:42:36;;;;;;;13.33;8.50;;;3.30;56.10;3.00;96558.00;;;;5038819;28;20454;-80
2022/03/06 05:45:05;;;;;;;12.03;8.83;;;3.20;56.20;3.00;96556.00;;;;5038218;28;20436;-79
2022/03/06 05:47:32;;;;;;;14.00;8.30;;;3.20;56.20;3.00;96558.00;;;;5037092;28;20444;-79
2022/03/06 05:50:02;;;;;;;12.20;8.70;;;3.20;56.30;3.00;96560.00;;;;5038545;28;21029;-79
2022/03/06 05:52:31;;;;;;;12.57;8.93;;;3.20;56.40;3.00;96560.00;;;;5038019;28;20531;-79
2022/03/06 05:54:58;;;;;;;12.20;8.50;;;3.20;56.40;3.00;96563.00;;;;5036521;28;20514;-79
2022/03/06 05:57:26;;;;;;;11.87;8.43;;;3.20;56.30;3.00;96557.00;;;;5057017;28;20443;-79
2022/03/06 05:59:53;;;;;;;12.37;8.30;;;3.20;56.30;2.90;96561.00;;;;5045596;28;20991;-80
2022/03/06 06:02:21;;;;;;;11.80;8.00;;;3.20;56.40;3.00;96560.00;;;;5056960;28;20522;-80
2022/03/06 06:04:49;;;;;;;11.90;8.23;;;3.20;56.40;3.00;96559.00;;;;5048018;28;20495;-80
2022/03/06 06:07:18;;;;;;;11.77;8.10;;;3.20;56.40;3.00;96572.00;;;;5019149;28;20447;-86
2022/03/06 06:09:45;;;;;;;11.63;8.03;;;3.20;56.50;3.00;96565.00;;;;5034791;28;20466;-86
2022/03/06 06:12:12;;;;;;;14.40;8.90;;;3.20;56.50;3.10;96575.00;;;;5034676;28;20440;-87
2022/03/06 06:14:39;;;;;;;12.30;8.60;;;3.20;56.50;3.10;96567.00;;;;5034242;28;20546;-86
2022/03/06 06:17:06;;;;;;;13.77;8.97;;;3.20;56.50;3.20;96572.00;;;;5034213;28;20452;-87
2022/03/06 06:19:34;;;;;;;12.00;8.30;;;3.20;56.30;3.20;96576.00;;;;5047549;28;20533;-88
2022/03/06 06:22:01;;;;;;;10.23;7.77;;;3.30;56.60;3.20;96575.00;;;;5054523;28;20967;-87
2022/03/06 06:24:30;;;;;;;12.57;8.60;;;3.30;56.60;3.30;96569.00;;;;5054076;28;20463;-87
2022/03/06 06:26:57;;;;;;;11.57;8.27;;;3.30;56.50;3.30;96577.00;;;;5054365;28;20447;-88
2022/03/06 06:29:25;;;;;;;11.20;8.13;;;3.30;56.60;3.30;96572.00;;;;5054457;28;20451;-87
2022/03/06 06:31:54;;;;;;;12.03;8.40;;;3.30;56.40;3.30;96585.00;;;;5054104;28;20458;-87
2022/03/06 06:34:22;;;;;;;10.90;7.93;;;3.30;56.50;3.30;96578.00;;;;5048062;28;20538;-87
2022/03/06 06:36:51;;;;;;;10.87;7.70;;;3.30;56.40;3.30;96578.00;;;;5034549;28;20428;-87
2022/03/06 06:39:19;;;;;;;11.77;8.00;;;3.30;56.40;3.30;96575.00;;;;5034830;28;20921;-87
2022/03/06 06:41:47;;;;;;;11.97;8.47;;;3.40;56.50;3.40;96581.00;;;;5033524;28;20484;-88
2022/03/06 06:44:16;;;;;;;11.27;8.27;;;3.40;56.40;3.40;96568.00;;;;5035238;28;21050;-88
2022/03/06 06:46:43;;;;;;;11.87;8.30;;;3.40;56.30;3.40;96579.00;;;;5034597;28;20437;-88
2022/03/06 06:49:11;;;;;;;11.37;7.70;;;3.40;56.30;3.40;96580.00;;;;5034507;28;20968;-88
2022/03/06 06:51:40;;;;;;;12.03;7.50;;;3.40;56.30;3.40;96578.00;;;;5033692;28;20444;-88
2022/03/06 06:54:07;;;;;;;11.67;8.20;;;3.40;56.20;3.40;96584.00;;;;5033081;28;20452;-88
2022/03/06 06:56:36;;;;;;;11.00;8.10;;;3.50;56.20;3.40;96586.00;;;;5033983;28;20444;-87
2022/03/06 06:59:05;;;;;;;11.60;7.63;;;3.50;56.30;3.50;96600.00;;;;5045189;28;20489;-88
2022/03/06 07:01:32;;;;;;;11.83;8.43;;;3.50;56.30;3.50;96601.00;;;;5042391;28;20483;-87
2022/03/06 07:03:59;;;;;;;11.57;8.00;;;3.50;56.20;3.50;96596.00;;;;5035199;28;20456;-88
2022/03/06 07:06:26;;;;;;;12.30;8.33;;;3.50;56.20;3.50;96600.00;;;;5053810;28;20447;-88
2022/03/06 07:08:56;;;;;;;10.30;7.80;;;3.60;56.10;3.50;96605.00;;;;5054134;28;20545;-87
2022/03/06 07:11:23;;;;;;;11.13;8.17;;;3.80;56.10;3.50;96600.00;;;;5052270;28;20483;-87
2022/03/06 07:13:53;;;;;;;11.63;7.93;;;3.60;56.00;3.60;96599.00;;;;5053299;28;20459;-88
2022/03/06 07:16:21;;;;;;;12.67;7.87;;;3.60;56.00;3.60;96601.00;;;;5051974;28;20883;-87
2022/03/06 07:18:48;;;;;;;12.47;8.17;;;4.80;56.50;3.70;96606.00;;;;5046585;28;20448;-88
2022/03/06 07:21:15;;;;;;;11.47;7.57;;;3.70;56.00;3.70;96607.00;;;;5053588;28;20573;-88
2022/03/06 07:23:43;;;;;;;10.77;7.53;;;3.70;56.00;3.80;96610.00;;;;5053107;28;20546;-88
2022/03/06 07:26:12;;;;;;;10.37;7.60;;;4.40;56.30;3.80;96610.00;;;;5039322;28;20531;-87
2022/03/06 07:28:39;;;;;;;11.33;7.43;;;3.80;55.90;3.90;96614.00;;;;5033633;28;20494;-88
2022/03/06 07:31:06;;;;;;;12.07;7.80;;;3.90;55.80;3.90;96606.00;;;;5032964;28;20591;-87
2022/03/06 07:33:35;;;;;;;10.70;7.53;;;3.90;55.90;3.90;96602.00;;;;5033704;28;20555;-88
2022/03/06 07:36:02;;;;;;;9.53;7.40;;;4.00;55.80;4.00;96611.00;;;;5033423;28;20502;-88
2022/03/06 07:38:29;;;;;;;11.33;7.67;;;4.00;55.80;4.00;96614.00;;;;5053124;28;20494;-88
2022/03/06 07:40:57;;;;;;;11.17;7.20;;;4.10;55.70;4.10;96604.00;;;;5053071;28;20259;-88
2022/03/06 07:43:24;;;;;;;10.00;7.80;;;4.10;55.70;4.10;96615.00;;;;5053624;28;20490;-88
2022/03/06 07:45:51;;;;;;;9.97;7.40;;;4.10;55.60;4.20;96617.00;;;;5037127;28;20940;-87
2022/03/06 07:48:18;;;;;;;11.83;7.70;;;4.20;55.70;4.30;96609.00;;;;5052543;28;20255;-88
2022/03/06 07:50:47;;;;;;;9.80;7.23;;;4.40;55.70;4.30;96615.00;;;;5053350;28;20466;-88
2022/03/06 07:53:19;;;;;;;11.70;8.17;;;4.30;55.60;4.40;96615.00;;;;5052853;28;20448;-87
2022/03/06 07:55:47;;;;;;;12.07;7.73;;;4.40;55.50;4.50;96616.00;;;;5053019;28;20519;-88
2022/03/06 07:58:17;;;;;;;10.07;6.90;;;4.40;55.50;4.60;96607.00;;;;5052539;28;20192;-88
2022/03/06 08:00:44;;;;;;;9.43;6.93;;;4.50;55.60;4.70;96622.00;;;;5034716;28;20224;-88
2022/03/06 08:03:12;;;;;;;13.03;8.03;;;4.60;55.70;4.90;96625.00;;;;5052137;28;20255;-88
2022/03/06 08:05:47;;;;;;;9.53;7.03;;;4.70;55.70;5.00;96627.00;;;;5033922;28;20729;-88
2022/03/06 08:11:05;;;;;;;10.30;6.90;;;5.00;55.70;5.40;96634.00;;;;5033822;23;20240;-87
2022/03/06 08:13:32;;;;;;;11.70;7.53;;;5.10;55.60;5.60;96649.00;;;;5021737;28;20224;-86
2022/03/06 08:15:59;;;;;;;9.67;6.97;;;5.30;55.60;5.80;96641.00;;;;5030349;28;20563;-86
2022/03/06 08:18:26;;;;;;;9.67;7.20;;;5.40;55.50;6.00;96649.00;;;;5033385;28;20229;-87
2022/03/06 08:20:53;;;;;;;9.97;6.80;;;5.60;55.40;6.20;96654.00;;;;5032946;28;20716;-89
2022/03/06 08:23:21;;;;;;;12.20;7.47;;;5.80;55.30;6.40;96655.00;;;;5033800;28;20205;-87
2022/03/06 08:25:48;;;;;;;11.53;7.40;;;6.00;55.20;6.60;96644.00;;;;5033581;28;20212;-89
2022/03/06 08:28:15;;;;;;;9.07;7.27;;;6.10;55.00;6.80;96654.00;;;;5033416;28;20673;-89
2022/03/06 08:30:42;;;;;;;9.80;6.97;;;6.30;54.80;7.00;96652.00;;;;5033587;28;20236;-89
2022/03/06 08:33:10;;;;;;;10.40;7.17;;;6.50;54.80;7.20;96660.00;;;;5033690;28;20251;-89
2022/03/06 08:35:37;;;;;;;11.03;6.90;;;6.70;54.60;7.40;96654.00;;;;5033783;28;20284;-89
2022/03/06 08:38:04;;;;;;;9.23;7.07;;;6.80;54.30;7.60;96655.00;;;;5033767;28;20201;-89
2022/03/06 08:40:32;;;;;;;8.83;6.77;;;7.10;54.20;7.80;96667.00;;;;5033246;28;20225;-89
2022/03/06 08:42:59;;;;;;;10.47;7.37;;;7.30;53.70;7.90;96667.00;;;;4993905;28;20285;-88
2022/03/06 08:45:26;;;;;;;9.57;6.90;;;7.40;53.60;8.10;96654.00;;;;4993847;28;20661;-89
2022/03/06 08:47:53;;;;;;;9.13;6.60;;;7.60;53.30;8.30;96664.00;;;;5012235;28;20566;-88
2022/03/06 08:50:21;;;;;;;8.40;6.70;;;7.70;53.30;8.60;96664.00;;;;5013514;28;20300;-87
2022/03/06 08:52:48;;;;;;;7.23;6.00;;;7.90;53.00;8.80;96668.00;;;;5010975;28;20289;-89
2022/03/06 08:55:15;;;;;;;8.03;6.27;;;8.10;52.70;9.00;96658.00;;;;4993452;28;20238;-88
2022/03/06 08:57:43;;;;;;;9.07;6.73;;;8.30;52.60;9.30;96673.00;;;;4993746;28;20286;-89
2022/03/06 09:00:12;;;;;;;8.87;5.87;;;8.50;52.40;9.60;96666.00;;;;4994140;28;20257;-88
2022/03/06 09:02:39;;;;;;;9.13;5.87;;;8.70;52.10;9.80;96658.00;;;;4994022;28;20722;-87
2022/03/06 09:05:07;;;;;;;7.43;6.10;;;8.90;52.00;10.10;96672.00;;;;4992889;28;20195;-88
2022/03/06 09:07:34;;;;;;;6.07;5.03;;;9.20;51.70;10.40;96668.00;;;;4993873;28;20206;-88
2022/03/06 09:10:01;;;;;;;7.77;6.13;;;9.50;51.60;10.70;96669.00;;;;5007687;28;20233;-87
2022/03/06 09:12:28;;;;;;;8.33;5.77;;;9.80;50.80;10.90;96676.00;;;;5013076;28;20218;-87
2022/03/06 09:14:58;;;;;;;7.60;5.97;;;10.20;50.50;11.10;96680.00;;;;5012814;28;20196;-87
2022/03/06 09:17:25;;;;;;;9.73;6.60;;;10.60;50.00;11.40;96676.00;;;;5012919;28;20197;-87
2022/03/06 09:19:52;;;;;;;7.07;5.73;;;11.10;49.90;11.60;96670.00;;;;5013215;28;20198;-87
2022/03/06 09:22:20;;;;;;;8.63;5.80;;;11.60;49.40;11.90;96680.00;;;;5017257;28;20220;-88
2022/03/06 09:24:47;;;;;;;6.30;5.33;;;12.00;49.10;12.10;96676.00;;;;5013471;28;20634;-87
2022/03/06 09:27:14;;;;;;;7.67;4.80;;;12.50;48.40;12.40;96678.00;;;;5014919;28;20285;-87
2022/03/06 09:29:41;;;;;;;7.27;5.80;;;12.90;47.60;12.60;96678.00;;;;5019207;28;20655;-88
2022/03/06 09:32:09;;;;;;;7.43;5.10;;;13.30;47.30;12.80;96680.00;;;;5020592;28;20206;-86
2022/03/06 09:34:36;;;;;;;5.70;4.87;;;13.70;46.40;13.00;96684.00;;;;5011400;28;20285;-87
2022/03/06 09:37:04;;;;;;;6.57;5.13;;;14.10;46.10;13.20;96678.00;;;;5012620;28;20648;-87
2022/03/06 09:39:31;;;;;;;6.40;5.70;;;14.40;44.80;13.40;96690.00;;;;5043156;22;20315;-82
2022/03/06 09:41:58;;;;;;;7.20;5.53;;;14.70;44.20;13.60;96692.00;;;;5027281;28;20210;-85
2022/03/06 09:44:27;;;;;;;6.30;5.57;;;14.80;43.80;13.80;96696.00;;;;5031848;28;20197;-83
2022/03/06 09:46:56;;;;;;;7.50;5.33;;;14.90;42.60;13.90;96694.00;;;;5048553;28;20192;-84
2022/03/06 09:49:25;;;;;;;8.83;6.00;;;15.00;42.20;14.10;96689.00;;;;5031552;28;20224;-84
2022/03/06 09:51:54;;;;;;;6.47;5.57;;;15.00;40.40;14.10;96699.00;;;;5031753;28;20198;-84
2022/03/06 09:54:21;;;;;;;7.80;5.47;;;14.90;39.90;14.20;96695.00;;;;5031457;28;20197;-83
2022/03/06 09:56:49;;;;;;;6.43;5.40;;;14.90;40.50;14.20;96706.00;;;;5031769;28;20194;-84
2022/03/06 09:59:16;;;;;;;7.80;5.03;;;14.80;39.90;14.10;96702.00;;;;5030651;28;20220;-83
2022/03/06 10:01:43;;;;;;;5.47;4.80;;;14.60;39.70;14.10;96704.00;;;;5030955;28;20228;-84
2022/03/06 10:04:31;;;;;;;5.77;5.17;;;14.50;40.40;14.10;96703.00;;;;5030259;28;20197;-83
2022/03/06 10:07:04;;;;;;;6.20;4.73;;;14.30;40.00;14.10;96705.00;;;;5026182;28;20197;-84
2022/03/06 10:09:33;;;;;;;6.00;4.93;;;14.30;40.40;14.10;96701.00;;;;5031466;28;20746;-83
2022/03/06 10:12:01;;;;;;;5.90;5.17;;;14.30;40.80;14.10;96702.00;;;;5049212;28;20218;-84
2022/03/06 10:14:37;;;;;;;6.60;5.03;;;14.40;39.60;14.10;96702.00;;;;5043573;28;20194;-84
2022/03/06 10:17:13;;;;;;;8.00;5.00;;;14.50;39.80;14.10;96696.00;;;;5032823;28;20204;-83
2022/03/06 10:19:57;;;;;;;5.07;4.57;;;14.70;39.80;14.10;96694.00;;;;5029390;28;20227;-82
2022/03/06 10:22:28;;;;;;;5.27;4.57;;;14.80;39.40;14.00;96703.00;;;;5026169;28;20295;-83
2022/03/06 10:24:59;;;;;;;5.23;4.73;;;14.90;39.60;14.00;96701.00;;;;5031106;28;20196;-83
2022/03/06 10:27:48;;;;;;;5.90;4.63;;;14.90;39.20;14.00;96697.00;;;;5047532;28;20198;-83
2022/03/06 10:30:28;;;;;;;5.10;4.30;;;15.00;39.00;14.00;96698.00;;;;5034389;28;20714;-83
2022/03/06 10:32:57;;;;;;;5.13;4.63;;;15.00;39.30;14.10;96700.00;;;;5034409;28;20201;-83
2022/03/06 10:35:35;;;;;;;5.37;4.87;;;15.00;39.40;14.10;96696.00;;;;5034609;28;20202;-82
2022/03/06 10:38:17;;;;;;;5.30;4.80;;;15.10;38.70;14.10;96698.00;;;;5023654;28;20288;-84
2022/03/06 10:40:45;;;;;;;6.80;5.03;;;15.10;39.10;14.10;96690.00;;;;5023854;28;20629;-82
2022/03/06 10:43:21;;;;;;;5.70;4.77;;;15.10;38.60;14.20;96705.00;;;;5030486;28;20213;-85
2022/03/06 10:45:51;;;;;;;5.43;4.93;;;15.20;37.80;14.20;96695.00;;;;5014731;28;20575;-84
2022/03/06 10:48:20;;;;;;;5.87;4.20;;;15.20;38.00;14.20;96696.00;;;;5020396;28;20221;-83
2022/03/06 10:50:48;;;;;;;6.10;5.03;;;15.30;38.20;14.20;96692.00;;;;5033984;28;20926;-84
2022/03/06 10:53:21;;;;;;;5.90;5.30;;;15.40;37.50;14.20;96699.00;;;;5032508;28;20194;-84
2022/03/06 10:55:49;;;;;;;6.53;4.83;;;15.40;36.70;14.10;96695.00;;;;5044331;28;20197;-85
2022/03/06 10:58:18;;;;;;;5.43;4.90;;;15.30;37.00;14.00;96696.00;;;;5034051;28;20197;-84
2022/03/06 11:00:46;;;;;;;5.77;5.17;;;15.10;36.70;13.90;96689.00;;;;5031213;28;20189;-82
2022/03/06 11:03:13;;;;;;;5.87;4.93;;;14.90;35.90;13.70;96687.00;;;;5036858;28;20228;-84
2022/03/06 11:05:43;;;;;;;5.20;4.70;;;14.60;36.20;13.60;96677.00;;;;5033873;28;20677;-84
2022/03/06 11:08:15;;;;;;;5.07;4.60;;;14.40;36.30;13.40;96677.00;;;;5033308;28;20205;-83
2022/03/06 11:10:43;;;;;;;5.73;4.60;;;14.10;36.10;13.20;96672.00;;;;5024601;28;20204;-82